createdAt,value
2023-02-06T00:00:53.083Z,6.28
2023-02-06T00:03:20.363Z,6.68
2023-02-06T00:05:58.680Z,6.15
2023-02-06T00:08:26.840Z,5.93
2023-02-06T00:10:54.312Z,5.68
2023-02-06T00:13:21.803Z,6.13
2023-02-06T00:15:48.697Z,5.47
2023-02-06T00:18:15.914Z,6.00
2023-02-06T00:20:42.836Z,6.38
2023-02-06T00:23:10.036Z,6.13
2023-02-06T00:25:37.178Z,6.63
2023-02-06T00:28:04.558Z,6.18
2023-02-06T00:30:31.602Z,6.38
2023-02-06T00:32:58.501Z,6.03
2023-02-06T00:35:25.457Z,6.47
2023-02-06T00:37:52.254Z,5.55
2023-02-06T00:40:19.442Z,7.38
2023-02-06T00:42:46.223Z,6.40
2023-02-06T00:45:13.461Z,5.57
2023-02-06T00:47:40.272Z,5.82
2023-02-06T00:50:07.184Z,5.85
2023-02-06T00:52:33.947Z,4.55
2023-02-06T00:55:00.704Z,5.32
2023-02-06T00:57:27.485Z,6.00
2023-02-06T00:59:54.471Z,6.75
2023-02-06T01:02:21.550Z,6.40
2023-02-06T01:04:48.348Z,6.07
2023-02-06T01:07:15.231Z,6.10
2023-02-06T01:09:41.979Z,6.13
2023-02-06T01:12:09.223Z,5.70
2023-02-06T01:14:36.160Z,5.45
2023-02-06T01:17:03.285Z,4.88
2023-02-06T01:19:30.085Z,5.68
2023-02-06T01:21:56.903Z,6.32
2023-02-06T01:24:23.651Z,5.57
2023-02-06T01:26:50.665Z,5.93
2023-02-06T01:29:17.438Z,5.80
2023-02-06T01:31:44.258Z,5.63
2023-02-06T01:34:11.210Z,7.07
2023-02-06T01:36:38.268Z,6.18
2023-02-06T01:39:06.720Z,5.57
2023-02-06T01:41:34.563Z,6.10
2023-02-06T01:44:10.680Z,4.50
2023-02-06T01:46:39.416Z,4.85
2023-02-06T01:49:19.875Z,4.53
2023-02-06T01:51:49.311Z,4.57
2023-02-06T01:54:16.402Z,5.30
2023-02-06T01:56:49.879Z,5.20
2023-02-06T01:59:16.848Z,5.95
2023-02-06T02:01:45.140Z,4.57
2023-02-06T02:04:16.680Z,5.20
2023-02-06T02:06:49.030Z,4.90
2023-02-06T02:09:16.834Z,6.07
2023-02-06T02:11:43.657Z,5.18
2023-02-06T02:14:12.918Z,5.57
2023-02-06T02:17:12.132Z,5.07
2023-02-06T02:20:09.887Z,5.10
2023-02-06T02:22:51.531Z,5.35
2023-02-06T02:25:53.635Z,5.68
2023-02-06T02:28:29.319Z,5.60
2023-02-06T02:31:33.232Z,5.07
2023-02-06T02:34:37.151Z,4.57
2023-02-06T02:37:35.953Z,5.07
2023-02-06T02:40:10.219Z,5.25
2023-02-06T02:42:59.258Z,4.68
2023-02-06T02:45:33.167Z,4.63
2023-02-06T02:48:14.385Z,4.80
2023-02-06T02:50:42.013Z,5.17
2023-02-06T02:53:08.924Z,5.28
2023-02-06T02:55:35.902Z,5.18
2023-02-06T02:58:12.636Z,4.25
2023-02-06T03:00:45.119Z,5.38
2023-02-06T03:03:14.649Z,4.97
2023-02-06T03:06:11.522Z,4.03
2023-02-06T03:08:56.307Z,4.55
2023-02-06T03:11:23.867Z,5.18
2023-02-06T03:13:50.541Z,4.57
2023-02-06T03:16:24.226Z,4.43
2023-02-06T03:18:55.691Z,3.65
2023-02-06T03:21:24.976Z,5.57
2023-02-06T03:23:56.022Z,4.82
2023-02-06T03:26:25.934Z,5.05
2023-02-06T03:28:57.147Z,3.47
2023-02-06T03:31:28.785Z,4.53
2023-02-06T03:34:03.992Z,5.07
2023-02-06T03:36:30.884Z,4.20
2023-02-06T03:38:59.339Z,4.97
2023-02-06T03:41:30.965Z,4.43
2023-02-06T03:43:59.705Z,4.60
2023-02-06T03:46:29.118Z,4.72
2023-02-06T03:49:00.291Z,5.10
2023-02-06T03:51:39.423Z,5.10
2023-02-06T03:54:07.969Z,4.47
2023-02-06T03:56:47.323Z,5.00
2023-02-06T03:59:14.709Z,4.38
2023-02-06T04:01:46.980Z,4.25
2023-02-06T04:04:18.840Z,4.15
2023-02-06T04:06:45.792Z,3.90
2023-02-06T04:09:12.584Z,4.63
2023-02-06T04:11:39.390Z,4.55
2023-02-06T04:14:06.150Z,4.55
2023-02-06T04:16:32.936Z,4.13
2023-02-06T04:18:59.823Z,4.60
2023-02-06T04:21:26.606Z,4.85
2023-02-06T04:23:53.338Z,5.10
2023-02-06T04:26:20.131Z,4.80
2023-02-06T04:28:46.879Z,5.22
2023-02-06T04:31:13.766Z,4.95
2023-02-06T04:33:40.657Z,4.40
2023-02-06T04:36:07.611Z,4.97
2023-02-06T04:38:34.406Z,4.50
2023-02-06T04:41:05.457Z,4.78
2023-02-06T04:43:33.300Z,5.25
2023-02-06T04:46:00.178Z,4.43
2023-02-06T04:48:27.104Z,4.47
2023-02-06T04:50:54.139Z,4.85
2023-02-06T04:53:21.111Z,4.70
2023-02-06T04:55:47.946Z,4.50
2023-02-06T04:58:14.887Z,4.60
2023-02-06T05:00:41.745Z,4.15
2023-02-06T05:03:08.564Z,4.70
2023-02-06T05:05:35.542Z,4.40
2023-02-06T05:08:02.779Z,5.07
2023-02-06T05:10:29.766Z,4.45
2023-02-06T05:12:56.643Z,5.25
2023-02-06T05:15:23.498Z,4.40
2023-02-06T05:17:50.469Z,4.97
2023-02-06T05:20:17.623Z,4.75
2023-02-06T05:22:44.451Z,4.97
2023-02-06T05:25:11.315Z,5.07
2023-02-06T05:27:38.130Z,4.50
2023-02-06T05:30:05.282Z,4.63
2023-02-06T05:32:32.234Z,4.53
2023-02-06T05:34:59.251Z,4.85
2023-02-06T05:37:26.184Z,5.53
2023-02-06T05:39:53.008Z,5.07
2023-02-06T05:42:19.739Z,5.18
2023-02-06T05:44:46.522Z,4.78
2023-02-06T05:47:13.305Z,4.82
2023-02-06T05:49:40.069Z,5.20
2023-02-06T05:52:06.895Z,5.35
2023-02-06T05:54:33.656Z,5.43
2023-02-06T05:57:00.500Z,5.18
2023-02-06T05:59:27.351Z,4.97
2023-02-06T06:01:54.044Z,5.63
2023-02-06T06:04:20.893Z,5.80
2023-02-06T06:06:47.738Z,5.82
2023-02-06T06:09:14.694Z,5.47
2023-02-06T06:11:41.571Z,5.40
2023-02-06T06:14:08.719Z,5.72
2023-02-06T06:16:35.579Z,5.97
2023-02-06T06:19:02.399Z,5.53
2023-02-06T06:21:29.742Z,5.75
2023-02-06T06:23:56.532Z,5.32
2023-02-06T06:26:23.316Z,6.13
2023-02-06T06:28:50.179Z,5.65
2023-02-06T06:31:17.057Z,6.07
2023-02-06T06:33:44.118Z,5.78
2023-02-06T06:36:14.391Z,6.00
2023-02-06T06:38:41.865Z,6.10
2023-02-06T06:41:08.686Z,5.80
2023-02-06T06:43:35.687Z,5.45
2023-02-06T06:46:02.633Z,6.13
2023-02-06T06:48:29.561Z,6.13
2023-02-06T06:50:56.382Z,6.28
2023-02-06T06:53:23.522Z,6.10
2023-02-06T06:55:50.393Z,5.97
2023-02-06T06:58:17.130Z,5.80
2023-02-06T07:00:44.073Z,5.90
2023-02-06T07:03:12.090Z,6.82
2023-02-06T07:05:39.111Z,6.35
2023-02-06T07:08:06.030Z,5.90
2023-02-06T07:10:32.816Z,5.90
2023-02-06T07:12:59.608Z,6.10
2023-02-06T07:15:26.412Z,5.55
2023-02-06T07:17:54.517Z,5.97
2023-02-06T07:20:21.471Z,5.05
2023-02-06T07:22:50.335Z,5.45
2023-02-06T07:25:20.116Z,5.28
2023-02-06T07:27:51.515Z,6.13
2023-02-06T07:30:18.519Z,5.20
2023-02-06T07:32:45.254Z,4.50
2023-02-06T07:35:12.088Z,4.95
2023-02-06T07:37:38.851Z,5.00
2023-02-06T07:40:06.065Z,4.85
2023-02-06T07:42:33.727Z,5.18
2023-02-06T07:45:00.749Z,5.10
2023-02-06T07:47:27.512Z,4.90
2023-02-06T07:49:54.320Z,4.72
2023-02-06T07:52:22.404Z,5.70
2023-02-06T07:54:49.203Z,4.95
2023-02-06T07:57:16.326Z,5.15
2023-02-06T07:59:43.062Z,4.95
2023-02-06T08:02:12.063Z,4.78
2023-02-06T08:04:39.305Z,4.60
2023-02-06T08:07:07.027Z,5.45
2023-02-06T08:09:33.849Z,5.55
2023-02-06T08:12:00.632Z,5.43
2023-02-06T08:14:28.577Z,5.13
2023-02-06T08:16:55.410Z,5.00
2023-02-06T08:19:22.301Z,5.30
2023-02-06T08:21:49.903Z,5.10
2023-02-06T08:24:16.683Z,4.97
2023-02-06T08:26:46.751Z,6.00
2023-02-06T08:29:14.440Z,5.40
2023-02-06T08:31:42.787Z,5.10
2023-02-06T08:34:12.763Z,5.22
2023-02-06T08:36:39.934Z,4.80
2023-02-06T08:39:08.011Z,5.03
2023-02-06T08:41:37.705Z,5.18
2023-02-06T08:44:07.254Z,5.57
2023-02-06T08:46:34.524Z,5.68
2023-02-06T08:49:07.396Z,5.25
2023-02-06T08:51:36.818Z,5.00
2023-02-06T08:54:06.638Z,5.38
2023-02-06T08:56:34.870Z,5.32
2023-02-06T08:59:02.272Z,5.40
2023-02-06T09:01:32.651Z,5.32
2023-02-06T09:04:02.474Z,5.45
2023-02-06T09:06:29.858Z,6.32
2023-02-06T09:08:57.490Z,5.53
2023-02-06T09:11:26.158Z,5.30
2023-02-06T09:13:56.005Z,5.70
2023-02-06T09:16:23.651Z,5.63
2023-02-06T09:18:54.246Z,5.10
2023-02-06T09:21:25.989Z,5.60
2023-02-06T09:23:56.129Z,5.63
2023-02-06T09:26:25.758Z,5.35
2023-02-06T09:28:54.204Z,5.68
2023-02-06T09:31:21.312Z,5.38
2023-02-06T09:33:48.186Z,5.30
2023-02-06T09:36:17.673Z,5.32
2023-02-06T09:38:47.467Z,6.13
2023-02-06T09:41:29.010Z,5.80
2023-02-06T09:44:08.074Z,5.65
2023-02-06T09:47:11.565Z,5.22
2023-02-06T09:49:51.511Z,5.32
2023-02-06T09:52:52.230Z,6.05
2023-02-06T09:55:52.364Z,5.30
2023-02-06T09:58:40.036Z,5.43
2023-02-06T10:01:34.188Z,5.35
2023-02-06T10:04:16.078Z,5.30
2023-02-06T10:09:16.639Z,5.07
2023-02-06T10:12:14.662Z,5.43
2023-02-06T10:14:46.940Z,5.20
2023-02-06T10:17:25.820Z,5.32
2023-02-06T10:19:59.670Z,5.68
2023-02-06T10:23:02.244Z,5.30
2023-02-06T10:25:43.704Z,5.03
2023-02-06T10:28:24.547Z,5.55
2023-02-06T10:31:18.713Z,5.47
2023-02-06T10:33:54.420Z,5.53
2023-02-06T10:36:52.225Z,5.10
2023-02-06T10:39:28.135Z,5.53
2023-02-06T10:42:04.140Z,5.32
2023-02-06T10:44:51.465Z,5.88
2023-02-06T10:47:41.642Z,5.80
2023-02-06T10:50:20.311Z,5.22
2023-02-06T10:52:47.615Z,5.45
2023-02-06T10:55:38.424Z,5.03
2023-02-06T10:58:20.785Z,5.20
2023-02-06T11:00:49.602Z,4.93
2023-02-06T11:03:21.582Z,5.18
2023-02-06T11:05:48.471Z,5.70
2023-02-06T11:08:32.534Z,4.80
2023-02-06T11:11:17.020Z,5.18
2023-02-06T11:13:45.880Z,5.63
2023-02-06T11:16:16.479Z,4.93
2023-02-06T11:18:46.059Z,4.75
2023-02-06T11:21:14.624Z,5.30
2023-02-06T11:23:42.298Z,5.90
2023-02-06T11:26:19.234Z,6.00
2023-02-06T11:28:54.655Z,5.65
2023-02-06T11:31:47.328Z,5.45
2023-02-06T11:34:27.986Z,4.82
2023-02-06T11:36:58.289Z,4.90
2023-02-06T11:39:31.356Z,5.13
2023-02-06T11:42:01.528Z,5.13
2023-02-06T11:44:35.889Z,4.78
2023-02-06T11:47:33.373Z,5.30
2023-02-06T11:50:22.575Z,5.50
2023-02-06T11:52:49.894Z,5.57
2023-02-06T11:55:28.220Z,5.60
2023-02-06T11:58:28.460Z,5.32
2023-02-06T12:01:02.010Z,5.53
2023-02-06T12:03:35.360Z,6.22
2023-02-06T12:06:17.954Z,6.65
2023-02-06T12:08:56.719Z,6.35
2023-02-06T12:12:08.377Z,5.97
2023-02-06T12:14:51.729Z,5.60
2023-02-06T12:17:21.182Z,5.90
2023-02-06T12:19:57.141Z,6.13
2023-02-06T12:22:25.554Z,5.82
2023-02-06T12:24:56.591Z,6.00
2023-02-06T12:27:39.060Z,5.65
2023-02-06T12:30:28.707Z,6.30
2023-02-06T12:33:15.745Z,6.15
2023-02-06T12:35:49.751Z,5.93
2023-02-06T12:38:40.232Z,6.25
2023-02-06T12:41:32.628Z,6.47
2023-02-06T12:44:25.480Z,6.03
2023-02-06T12:47:02.598Z,5.90
2023-02-06T12:49:36.852Z,5.80
2023-02-06T12:52:11.977Z,5.35
2023-02-06T12:54:45.310Z,6.05
2023-02-06T12:57:21.117Z,5.38
2023-02-06T13:00:25.144Z,6.32
2023-02-06T13:03:13.677Z,6.82
2023-02-06T13:05:53.641Z,6.03
2023-02-06T13:08:28.604Z,6.05
2023-02-06T13:11:03.493Z,6.10
2023-02-06T13:13:36.710Z,6.03
2023-02-06T13:16:04.602Z,5.90
2023-02-06T13:18:45.529Z,6.28
2023-02-06T13:21:30.108Z,5.65
2023-02-06T13:24:02.671Z,5.65
2023-02-06T13:26:55.477Z,6.30
2023-02-06T13:29:27.555Z,6.20
2023-02-06T13:32:20.160Z,6.13
2023-02-06T13:34:50.496Z,6.13
2023-02-06T13:37:26.110Z,6.50
2023-02-06T13:40:17.690Z,5.65
2023-02-06T13:42:49.688Z,7.43
2023-02-06T13:45:22.479Z,5.68
2023-02-06T13:47:49.164Z,6.28
2023-02-06T13:50:34.079Z,6.30
2023-02-06T13:53:25.790Z,6.03
2023-02-06T13:56:09.908Z,5.95
2023-02-06T13:58:49.888Z,6.40
2023-02-06T14:01:25.891Z,6.35
2023-02-06T14:03:54.329Z,6.32
2023-02-06T14:06:27.103Z,6.28
2023-02-06T14:09:08.896Z,7.20
2023-02-06T14:12:35.309Z,6.40
2023-02-06T14:15:20.940Z,7.00
2023-02-06T14:18:12.929Z,7.07
2023-02-06T14:20:39.706Z,6.05
2023-02-06T14:23:31.671Z,6.00
2023-02-06T14:26:13.639Z,6.90
2023-02-06T14:31:21.615Z,5.95
2023-02-06T14:34:17.643Z,6.78
2023-02-06T14:36:46.931Z,5.85
2023-02-06T14:39:44.107Z,6.72
2023-02-06T14:42:16.747Z,6.47
2023-02-06T14:44:46.529Z,6.30
2023-02-06T14:47:19.281Z,6.40
2023-02-06T14:49:47.580Z,6.25
2023-02-06T14:52:22.145Z,6.80
2023-02-06T14:54:49.552Z,6.93
2023-02-06T14:57:29.071Z,6.90
2023-02-06T15:00:02.083Z,7.60
2023-02-06T15:02:34.719Z,7.57
2023-02-06T15:05:02.918Z,7.13
2023-02-06T15:07:34.977Z,6.97
2023-02-06T15:10:08.743Z,6.30
2023-02-06T15:12:36.746Z,6.35
2023-02-06T15:15:31.123Z,7.03
2023-02-06T15:18:05.682Z,6.80
2023-02-06T15:20:43.553Z,7.53
2023-02-06T15:23:29.230Z,6.57
2023-02-06T15:26:36.815Z,7.22
2023-02-06T15:29:05.714Z,6.38
2023-02-06T15:31:32.602Z,6.45
2023-02-06T15:34:01.255Z,6.57
2023-02-06T15:36:36.784Z,6.78
2023-02-06T15:39:07.657Z,6.78
2023-02-06T15:41:35.297Z,7.07
2023-02-06T15:44:17.774Z,6.82
2023-02-06T15:46:45.444Z,7.15
2023-02-06T15:49:32.283Z,6.65
2023-02-06T15:51:59.108Z,7.30
2023-02-06T15:54:27.578Z,6.93
2023-02-06T15:57:17.482Z,6.78
2023-02-06T15:59:44.635Z,7.03
2023-02-06T16:02:25.535Z,7.13
2023-02-06T16:04:54.062Z,7.22
2023-02-06T16:07:27.602Z,6.85
2023-02-06T16:10:04.241Z,6.20
2023-02-06T16:12:40.556Z,7.22
2023-02-06T16:15:31.310Z,7.00
2023-02-06T16:18:00.851Z,6.38
2023-02-06T16:20:37.253Z,6.75
2023-02-06T16:24:06.899Z,6.07
2023-02-06T16:26:49.243Z,6.53
2023-02-06T16:29:29.136Z,7.10
2023-02-06T16:32:00.793Z,6.63
2023-02-06T16:34:38.876Z,6.35
2023-02-06T16:37:12.131Z,7.05
2023-02-06T16:39:42.302Z,7.10
2023-02-06T16:42:24.161Z,7.03
2023-02-06T16:47:21.085Z,6.32
2023-02-06T16:49:52.273Z,7.55
2023-02-06T16:52:25.900Z,7.20
2023-02-06T16:54:55.904Z,6.97
2023-02-06T16:57:36.231Z,6.10
2023-02-06T17:00:09.464Z,6.85
2023-02-06T17:02:36.763Z,6.55
2023-02-06T17:05:03.753Z,7.18
2023-02-06T17:07:34.945Z,7.32
2023-02-06T17:10:02.259Z,7.05
2023-02-06T17:12:31.232Z,7.70
2023-02-06T17:14:58.551Z,7.50
2023-02-06T17:17:25.344Z,7.30
2023-02-06T17:19:52.607Z,6.88
2023-02-06T17:22:19.991Z,6.95
2023-02-06T17:24:46.987Z,8.02
2023-02-06T17:27:17.560Z,6.63
2023-02-06T17:29:47.371Z,6.80
2023-02-06T17:32:16.216Z,6.72
2023-02-06T17:34:43.267Z,6.88
2023-02-06T17:37:20.485Z,6.68
2023-02-06T17:39:51.855Z,7.18
2023-02-06T17:42:19.284Z,6.95
2023-02-06T17:44:46.091Z,7.25
2023-02-06T17:47:12.984Z,7.15
2023-02-06T17:49:39.944Z,7.25
2023-02-06T17:52:06.937Z,6.70
2023-02-06T17:54:34.133Z,7.50
2023-02-06T17:57:01.423Z,8.13
2023-02-06T17:59:28.290Z,6.72
2023-02-06T18:01:55.744Z,8.20
2023-02-06T18:04:23.034Z,7.25
2023-02-06T18:06:49.897Z,7.75
2023-02-06T18:09:17.399Z,7.57
2023-02-06T18:11:44.286Z,7.32
2023-02-06T18:14:11.256Z,7.53
2023-02-06T18:16:38.900Z,7.72
2023-02-06T18:19:05.746Z,7.75
2023-02-06T18:21:32.550Z,7.57
2023-02-06T18:23:59.425Z,7.43
2023-02-06T18:26:27.309Z,7.07
2023-02-06T18:28:54.875Z,7.45
2023-02-06T18:31:33.416Z,7.75
2023-02-06T18:34:02.235Z,7.30
2023-02-06T18:36:30.220Z,7.63
2023-02-06T18:38:57.659Z,7.75
2023-02-06T18:41:43.098Z,7.90
2023-02-06T18:44:10.777Z,7.30
2023-02-06T18:46:38.309Z,7.93
2023-02-06T18:49:06.231Z,7.35
2023-02-06T18:51:33.402Z,7.32
2023-02-06T18:54:00.825Z,7.85
2023-02-06T18:56:28.089Z,7.97
2023-02-06T18:58:55.049Z,7.60
2023-02-06T19:01:24.628Z,8.05
2023-02-06T19:03:54.547Z,8.00
2023-02-06T19:06:24.782Z,7.68
2023-02-06T19:08:51.684Z,7.70
2023-02-06T19:11:18.516Z,7.85
2023-02-06T19:13:45.486Z,8.10
2023-02-06T19:16:17.842Z,8.07
2023-02-06T19:18:47.462Z,8.00
2023-02-06T19:21:17.071Z,7.70
2023-02-06T19:23:45.451Z,8.20
2023-02-06T19:26:15.191Z,7.60
2023-02-06T19:28:43.364Z,7.50
2023-02-06T19:31:12.489Z,7.90
2023-02-06T19:33:40.986Z,7.22
2023-02-06T19:36:15.643Z,7.70
2023-02-06T19:38:44.035Z,7.10
2023-02-06T19:41:14.659Z,7.47
2023-02-06T19:43:41.540Z,7.53
2023-02-06T19:46:14.555Z,8.20
2023-02-06T19:48:43.906Z,7.45
2023-02-06T19:51:13.214Z,7.00
2023-02-06T19:53:45.754Z,6.68
2023-02-06T19:56:13.993Z,6.80
2023-02-06T19:58:41.683Z,6.88
2023-02-06T20:01:15.049Z,6.38
2023-02-06T20:03:43.130Z,6.90
2023-02-06T20:06:12.366Z,6.40
2023-02-06T20:08:42.876Z,6.47
2023-02-06T20:11:13.789Z,6.95
2023-02-06T20:13:41.125Z,6.10
2023-02-06T20:16:16.062Z,6.65
2023-02-06T20:18:43.244Z,6.97
2023-02-06T20:21:31.374Z,7.07
2023-02-06T20:24:03.316Z,6.30
2023-02-06T20:26:33.623Z,6.57
2023-02-06T20:29:01.322Z,6.15
2023-02-06T20:31:28.989Z,6.00
2023-02-06T20:33:56.040Z,5.75
2023-02-06T20:36:25.196Z,6.30
2023-02-06T20:38:57.790Z,5.95
2023-02-06T20:41:30.930Z,6.03
2023-02-06T20:43:59.961Z,6.05
2023-02-06T20:46:29.675Z,6.38
2023-02-06T20:48:58.376Z,6.47
2023-02-06T20:51:26.129Z,6.72
2023-02-06T20:53:53.110Z,6.38
2023-02-06T20:56:21.987Z,7.13
2023-02-06T20:58:50.700Z,6.75
2023-02-06T21:01:23.729Z,6.63
2023-02-06T21:03:52.675Z,6.03
2023-02-06T21:06:19.503Z,5.95
2023-02-06T21:08:48.033Z,5.95
2023-02-06T21:11:14.798Z,6.65
2023-02-06T21:13:41.595Z,6.35
2023-02-06T21:16:11.948Z,5.93
2023-02-06T21:18:42.605Z,6.38
2023-02-06T21:21:12.998Z,6.60
2023-02-06T21:23:41.803Z,6.20
2023-02-06T21:26:10.136Z,6.03
2023-02-06T21:28:37.545Z,6.35
2023-02-06T21:31:25.200Z,6.10
2023-02-06T21:33:52.649Z,6.18
2023-02-06T21:36:21.193Z,6.85
2023-02-06T21:38:48.258Z,6.45
2023-02-06T21:41:18.093Z,6.30
2023-02-06T21:43:45.617Z,6.57
2023-02-06T21:46:13.301Z,6.80
2023-02-06T21:48:41.187Z,6.35
2023-02-06T21:51:16.389Z,5.78
2023-02-06T21:53:44.717Z,6.22
2023-02-06T21:56:18.375Z,6.18
2023-02-06T21:58:45.853Z,7.07
2023-02-06T22:01:18.554Z,6.85
2023-02-06T22:03:46.525Z,5.97
2023-02-06T22:06:14.276Z,6.50
2023-02-06T22:08:48.011Z,6.22
2023-02-06T22:11:19.416Z,6.38
2023-02-06T22:13:48.041Z,6.10
2023-02-06T22:16:17.352Z,6.40
2023-02-06T22:18:44.234Z,6.20
2023-02-06T22:21:14.151Z,6.25
2023-02-06T22:23:41.802Z,6.53
2023-02-06T22:26:10.635Z,6.53
2023-02-06T22:28:37.462Z,6.47
2023-02-06T22:31:09.745Z,5.90
2023-02-06T22:33:36.748Z,5.90
2023-02-06T22:36:05.882Z,6.53
2023-02-06T22:38:33.100Z,5.93
2023-02-06T22:41:06.405Z,6.47
2023-02-06T22:43:35.563Z,6.38
2023-02-06T22:46:02.935Z,6.60
2023-02-06T22:48:29.684Z,6.55
2023-02-06T22:50:57.165Z,6.50
2023-02-06T22:53:29.743Z,5.97
2023-02-06T22:56:22.936Z,6.35
2023-02-06T22:58:50.416Z,5.55
2023-02-06T23:01:19.971Z,5.78
2023-02-06T23:03:47.177Z,6.57
2023-02-06T23:06:15.740Z,7.00
2023-02-06T23:08:43.658Z,6.00
2023-02-06T23:11:11.735Z,5.78
2023-02-06T23:13:39.509Z,5.60
2023-02-06T23:16:08.042Z,5.53
2023-02-06T23:18:35.693Z,6.13
2023-02-06T23:21:06.519Z,5.72
2023-02-06T23:23:33.894Z,6.70
2023-02-06T23:26:00.600Z,6.72
2023-02-06T23:28:27.870Z,7.03
2023-02-06T23:30:54.965Z,6.80
2023-02-06T23:33:22.371Z,6.47
2023-02-06T23:35:49.582Z,6.68
2023-02-06T23:38:16.401Z,6.30
2023-02-06T23:40:43.261Z,6.90
2023-02-06T23:43:10.565Z,6.43
2023-02-06T23:45:37.834Z,6.93
2023-02-06T23:48:04.891Z,6.65
2023-02-06T23:50:31.880Z,6.65
2023-02-06T23:52:58.644Z,6.20
2023-02-06T23:55:28.015Z,6.93
2023-02-06T23:57:54.761Z,6.57
